createdAt,value
2018-04-09T00:02:14.449Z,57.05
2018-04-09T00:04:45.373Z,56.50
2018-04-09T00:07:16.849Z,56.57
2018-04-09T00:09:48.262Z,56.49
2018-04-09T00:12:19.078Z,56.42
2018-04-09T00:14:50.644Z,56.78
2018-04-09T00:17:21.964Z,56.79
2018-04-09T00:19:53.520Z,56.79
2018-04-09T00:22:24.691Z,57.19
2018-04-09T00:24:56.032Z,57.31
2018-04-09T00:27:27.513Z,57.15
2018-04-09T00:29:58.945Z,57.45
2018-04-09T00:32:29.781Z,57.26
2018-04-09T00:35:01.057Z,57.48
2018-04-09T00:37:32.532Z,57.56
2018-04-09T00:40:03.743Z,57.42
2018-04-09T00:42:35.312Z,57.44
2018-04-09T00:45:06.786Z,57.26
2018-04-09T00:47:38.623Z,57.09
2018-04-09T00:50:10.148Z,56.71
2018-04-09T00:52:41.413Z,56.54
2018-04-09T00:55:12.879Z,56.91
2018-04-09T00:57:44.212Z,56.64
2018-04-09T01:00:15.852Z,57.03
2018-04-09T01:02:47.360Z,56.79
2018-04-09T01:05:19.682Z,57.08
2018-04-09T01:07:51.129Z,57.08
2018-04-09T01:10:22.721Z,57.25
2018-04-09T01:12:54.600Z,57.27
2018-04-09T01:15:25.960Z,57.41
2018-04-09T01:17:57.306Z,57.37
2018-04-09T01:20:28.764Z,57.66
2018-04-09T01:23:00.126Z,57.95
2018-04-09T01:25:31.336Z,57.40
2018-04-09T01:28:02.903Z,57.08
2018-04-09T01:30:34.418Z,57.43
2018-04-09T01:33:05.975Z,58.34
2018-04-09T01:35:37.296Z,59.88
2018-04-09T01:38:08.836Z,59.48
2018-04-09T01:40:40.721Z,59.23
2018-04-09T01:43:12.206Z,58.90
2018-04-09T01:45:43.842Z,59.07
2018-04-09T01:48:15.068Z,60.24
2018-04-09T01:50:46.240Z,58.34
2018-04-09T01:53:17.728Z,57.97
2018-04-09T01:55:49.608Z,57.46
2018-04-09T01:58:20.925Z,57.83
2018-04-09T02:00:52.308Z,57.80
2018-04-09T02:03:23.777Z,57.42
2018-04-09T02:05:55.303Z,57.54
2018-04-09T02:08:27.149Z,57.66
2018-04-09T02:10:58.237Z,57.94
2018-04-09T02:13:29.596Z,57.67
2018-04-09T02:16:01.728Z,57.28
2018-04-09T02:18:32.993Z,57.44
2018-04-09T02:21:04.489Z,57.49
2018-04-09T02:23:36.577Z,57.41
2018-04-09T02:26:08.405Z,59.52
2018-04-09T02:28:40.103Z,57.97
2018-04-09T02:31:11.661Z,58.24
2018-04-09T02:33:43.328Z,58.14
2018-04-09T02:36:15.173Z,60.71
2018-04-09T02:38:46.701Z,58.78
2018-04-09T02:41:17.810Z,59.54
2018-04-09T02:43:49.306Z,59.09
2018-04-09T02:46:20.849Z,58.68
2018-04-09T02:48:52.359Z,58.91
2018-04-09T02:51:23.749Z,58.62
2018-04-09T02:53:54.549Z,58.33
2018-04-09T02:56:25.919Z,58.19
2018-04-09T02:58:56.769Z,58.69
2018-04-09T03:01:27.718Z,58.15
2018-04-09T03:03:58.872Z,58.54
2018-04-09T03:06:29.957Z,58.39
2018-04-09T03:09:01.319Z,58.58
2018-04-09T03:11:37.984Z,58.36
2018-04-09T03:14:08.832Z,58.37
2018-04-09T03:16:40.406Z,58.39
2018-04-09T03:19:11.256Z,58.16
2018-04-09T03:21:43.200Z,57.83
2018-04-09T03:24:14.452Z,58.19
2018-04-09T03:26:45.285Z,58.58
2018-04-09T03:29:16.424Z,58.58
2018-04-09T03:31:47.585Z,58.02
2018-04-09T03:34:18.404Z,58.19
2018-04-09T03:36:49.897Z,58.51
2018-04-09T03:39:21.203Z,57.83
2018-04-09T03:41:51.920Z,57.78
2018-04-09T03:44:23.499Z,58.04
2018-04-09T03:46:54.364Z,58.22
2018-04-09T03:49:25.493Z,58.29
2018-04-09T03:51:56.428Z,59.24
2018-04-09T03:54:27.233Z,59.41
2018-04-09T03:56:58.017Z,59.38
2018-04-09T03:59:29.244Z,59.11
2018-04-09T04:02:00.053Z,59.10
2018-04-09T04:04:30.887Z,59.44
2018-04-09T04:07:03.080Z,59.63
2018-04-09T04:09:34.311Z,59.60
2018-04-09T04:12:05.144Z,59.90
2018-04-09T04:14:36.652Z,59.82
2018-04-09T04:21:31.139Z,59.65
2018-04-09T04:24:02.400Z,59.41
2018-04-09T04:26:33.172Z,59.72
2018-04-09T04:29:04.800Z,59.58
2018-04-09T04:31:36.085Z,59.49
2018-04-09T04:34:07.347Z,60.43
2018-04-09T04:36:38.649Z,59.97
2018-04-09T04:39:09.765Z,59.54
2018-04-09T04:41:40.552Z,59.60
2018-04-09T04:44:11.372Z,62.17
2018-04-09T04:46:42.980Z,62.30
2018-04-09T04:49:14.797Z,61.14
2018-04-09T04:51:46.069Z,60.47
2018-04-09T04:54:17.225Z,60.01
2018-04-09T04:56:48.096Z,60.02
2018-04-09T04:59:19.449Z,60.56
2018-04-09T05:01:50.918Z,65.27
2018-04-09T05:04:21.759Z,65.54
2018-04-09T05:06:52.966Z,65.13
2018-04-09T05:09:23.809Z,62.06
2018-04-09T05:11:54.548Z,61.42
2018-04-09T05:14:25.684Z,60.57
2018-04-09T05:16:57.146Z,61.86
2018-04-09T05:19:27.949Z,65.08
2018-04-09T05:21:59.113Z,65.91
2018-04-09T05:24:29.960Z,66.33
2018-04-09T05:27:01.101Z,66.11
2018-04-09T05:29:32.145Z,66.43
2018-04-09T05:32:02.986Z,64.63
2018-04-09T05:34:33.836Z,62.87
2018-04-09T05:37:05.252Z,61.63
2018-04-09T05:39:36.424Z,61.55
2018-04-09T05:42:07.546Z,62.08
2018-04-09T05:44:38.771Z,61.69
2018-04-09T05:47:09.545Z,61.63
2018-04-09T05:49:40.701Z,61.82
2018-04-09T05:52:11.928Z,61.47
2018-04-09T05:54:42.729Z,61.75
2018-04-09T05:57:13.817Z,61.41
2018-04-09T05:59:45.181Z,61.28
2018-04-09T06:02:16.417Z,61.08
2018-04-09T06:04:47.519Z,60.06
2018-04-09T06:07:19.869Z,60.14
2018-04-09T06:09:51.488Z,60.69
2018-04-09T06:12:22.305Z,60.74
2018-04-09T06:14:53.128Z,62.17
2018-04-09T06:17:23.911Z,61.38
2018-04-09T06:19:54.741Z,62.37
2018-04-09T06:22:25.609Z,62.03
2018-04-09T06:24:56.769Z,60.59
2018-04-09T06:27:27.581Z,59.94
2018-04-09T06:29:58.388Z,59.33
2018-04-09T06:32:29.897Z,59.70
2018-04-09T06:35:00.772Z,60.44
2018-04-09T06:37:31.873Z,58.97
2018-04-09T06:40:02.746Z,58.75
2018-04-09T06:42:33.652Z,57.92
2018-04-09T06:45:04.837Z,57.37
2018-04-09T06:47:35.672Z,56.96
2018-04-09T06:50:07.037Z,57.77
2018-04-09T06:52:38.673Z,56.96
2018-04-09T06:55:09.552Z,58.52
2018-04-09T06:57:41.432Z,60.10
2018-04-09T07:00:12.685Z,60.57
2018-04-09T07:02:43.548Z,60.57
2018-04-09T07:05:14.757Z,60.81
2018-04-09T07:07:45.652Z,60.65
2018-04-09T07:10:16.497Z,58.90
2018-04-09T07:12:47.616Z,59.06
2018-04-09T07:15:18.457Z,57.50
2018-04-09T07:17:49.305Z,55.06
2018-04-09T07:20:20.455Z,54.35
2018-04-09T07:22:51.332Z,52.25
2018-04-09T07:25:22.197Z,52.10
2018-04-09T07:27:54.016Z,52.91
2018-04-09T07:30:25.324Z,55.03
2018-04-09T07:32:56.461Z,55.33
2018-04-09T07:35:27.245Z,57.42
2018-04-09T07:37:59.110Z,55.55
2018-04-09T07:40:29.969Z,53.77
2018-04-09T07:43:00.790Z,52.55
2018-04-09T07:45:32.466Z,51.70
2018-04-09T07:48:03.286Z,51.01
2018-04-09T07:50:34.140Z,50.20
2018-04-09T07:53:05.880Z,50.91
2018-04-09T07:55:36.629Z,55.40
2018-04-09T07:58:07.433Z,57.34
2018-04-09T08:00:38.569Z,53.18
2018-04-09T08:03:09.364Z,54.58
2018-04-09T08:05:40.457Z,51.15
2018-04-09T08:08:11.300Z,52.95
2018-04-09T08:10:42.128Z,49.72
2018-04-09T08:13:13.215Z,48.02
2018-04-09T08:15:44.046Z,48.06
2018-04-09T08:18:15.521Z,51.86
2018-04-09T08:20:46.585Z,53.73
2018-04-09T08:23:17.493Z,53.36
2018-04-09T08:25:48.270Z,54.70
2018-04-09T08:29:43.213Z,53.07
2018-04-09T08:32:14.144Z,52.20
2018-04-09T08:34:45.321Z,49.92
2018-04-09T08:37:16.129Z,49.98
2018-04-09T08:39:47.040Z,49.33
2018-04-09T08:42:18.143Z,51.13
2018-04-09T08:44:48.945Z,51.08
2018-04-09T08:47:19.896Z,49.89
2018-04-09T08:49:50.975Z,46.86
2018-04-09T08:52:21.898Z,45.78
2018-04-09T08:54:52.720Z,45.30
2018-04-09T08:57:23.881Z,44.49
2018-04-09T08:59:54.726Z,45.12
2018-04-09T09:02:25.825Z,49.02
2018-04-09T09:04:56.665Z,51.03
2018-04-09T09:07:27.530Z,51.42
2018-04-09T09:09:58.769Z,48.36
2018-04-09T09:12:29.629Z,48.63
2018-04-09T09:15:00.525Z,48.17
2018-04-09T09:17:31.701Z,49.27
2018-04-09T09:20:02.601Z,49.87
2018-04-09T09:22:33.384Z,51.51
2018-04-09T09:25:04.536Z,51.30
2018-04-09T09:27:35.387Z,51.10
2018-04-09T09:30:06.461Z,48.76
2018-04-09T09:32:37.606Z,46.19
2018-04-09T09:35:08.633Z,44.65
2018-04-09T09:37:39.804Z,46.62
2018-04-09T09:40:10.800Z,45.47
2018-04-09T09:42:41.617Z,44.82
2018-04-09T09:45:12.818Z,44.31
2018-04-09T09:47:43.660Z,44.68
2018-04-09T09:50:14.520Z,46.74
2018-04-09T09:52:46.056Z,44.48
2018-04-09T09:55:16.886Z,44.89
2018-04-09T09:57:48.427Z,46.17
2018-04-09T10:00:23.337Z,45.37
2018-04-09T10:02:55.621Z,46.23
2018-04-09T10:05:26.625Z,43.21
2018-04-09T10:07:57.509Z,44.43
2018-04-09T10:10:28.393Z,43.85
2018-04-09T10:12:59.565Z,44.96
2018-04-09T10:15:30.674Z,44.53
2018-04-09T10:18:02.161Z,44.83
2018-04-09T10:20:33.253Z,43.94
2018-04-09T10:23:04.577Z,43.20
2018-04-09T10:25:36.153Z,42.45
2018-04-09T10:28:07.975Z,42.88
2018-04-09T10:30:39.409Z,41.09
2018-04-09T10:33:10.361Z,41.10
2018-04-09T10:35:41.709Z,43.15
2018-04-09T10:38:13.221Z,41.60
2018-04-09T10:40:44.081Z,46.23
2018-04-09T10:43:14.938Z,44.26
2018-04-09T10:45:46.048Z,43.95
2018-04-09T10:48:16.823Z,42.70
2018-04-09T10:50:47.631Z,42.22
2018-04-09T10:53:18.821Z,42.51
2018-04-09T10:55:49.757Z,41.42
2018-04-09T10:58:20.663Z,39.55
2018-04-09T11:00:52.568Z,40.33
2018-04-09T11:03:23.353Z,42.22
2018-04-09T11:05:54.839Z,44.67
2018-04-09T11:08:26.001Z,44.63
2018-04-09T11:10:56.845Z,43.68
2018-04-09T11:13:27.918Z,44.07
2018-04-09T11:15:58.810Z,44.63
2018-04-09T11:18:29.615Z,45.20
2018-04-09T11:21:00.692Z,44.19
2018-04-09T11:23:32.148Z,44.14
2018-04-09T11:26:02.988Z,42.56
2018-04-09T11:28:34.126Z,44.04
2018-04-09T11:31:04.946Z,43.41
2018-04-09T11:33:35.693Z,42.17
2018-04-09T11:36:06.821Z,43.11
2018-04-09T11:38:37.664Z,42.44
2018-04-09T11:41:08.519Z,42.06
2018-04-09T11:43:39.727Z,40.71
2018-04-09T11:46:10.564Z,39.85
2018-04-09T11:48:41.709Z,40.59
2018-04-09T11:51:12.544Z,40.32
2018-04-09T11:53:43.394Z,39.66
2018-04-09T11:56:14.600Z,38.56
2018-04-09T11:58:45.419Z,39.65
2018-04-09T12:01:16.216Z,38.62
2018-04-09T12:03:47.383Z,36.42
2018-04-09T12:06:18.202Z,37.78
2018-04-09T12:08:49.097Z,38.04
2018-04-09T12:11:20.261Z,37.05
2018-04-09T12:13:51.140Z,37.17
2018-04-09T12:16:22.007Z,36.19
2018-04-09T12:18:53.155Z,37.72
2018-04-09T12:21:24.159Z,36.29
2018-04-09T12:23:55.318Z,36.05
2018-04-09T12:26:26.526Z,35.06
2018-04-09T12:28:57.431Z,34.65
2018-04-09T12:31:28.515Z,36.08
2018-04-09T12:33:59.378Z,35.13
2018-04-09T12:36:30.240Z,35.71
2018-04-09T12:39:02.337Z,34.33
2018-04-09T12:41:33.217Z,33.31
2018-04-09T12:44:04.011Z,35.36
2018-04-09T12:46:35.239Z,35.94
2018-04-09T12:49:06.215Z,35.21
2018-04-09T12:51:37.343Z,34.28
2018-04-09T12:54:08.207Z,35.94
2018-04-09T12:56:38.996Z,37.01
2018-04-09T12:59:10.938Z,35.13
2018-04-09T13:01:41.763Z,33.99
2018-04-09T13:04:12.758Z,35.52
2018-04-09T13:06:44.543Z,36.12
2018-04-09T13:09:15.343Z,36.55
2018-04-09T13:11:46.190Z,37.77
2018-04-09T13:14:17.308Z,37.00
2018-04-09T13:16:48.157Z,36.93
2018-04-09T13:19:19.118Z,37.57
2018-04-09T13:21:50.201Z,36.68
2018-04-09T13:24:20.981Z,36.75
2018-04-09T13:26:51.843Z,36.80
2018-04-09T13:29:22.930Z,36.44
2018-04-09T13:31:53.847Z,37.04
2018-04-09T13:34:24.608Z,36.23
2018-04-09T13:36:55.694Z,36.74
2018-04-09T13:39:26.494Z,37.37
2018-04-09T13:41:57.318Z,37.38
2018-04-09T13:44:29.071Z,38.14
2018-04-09T13:46:59.898Z,38.17
2018-04-09T13:49:30.701Z,38.38
2018-04-09T13:52:01.800Z,38.31
2018-04-09T13:54:32.604Z,39.60
2018-04-09T13:57:03.970Z,38.90
2018-04-09T13:59:34.807Z,37.77
2018-04-09T14:02:05.715Z,38.00
2018-04-09T14:04:36.836Z,37.40
2018-04-09T14:07:07.728Z,37.39
2018-04-09T14:09:38.642Z,38.82
2018-04-09T14:12:09.754Z,38.88
2018-04-09T14:14:40.633Z,38.70
2018-04-09T14:17:11.463Z,39.49
2018-04-09T14:19:42.546Z,39.15
2018-04-09T14:22:13.369Z,40.05
2018-04-09T14:24:44.290Z,40.99
2018-04-09T14:27:15.403Z,40.45
2018-04-09T14:29:46.234Z,40.23
2018-04-09T14:32:17.415Z,40.35
2018-04-09T14:34:48.306Z,40.65
2018-04-09T14:37:19.155Z,40.01
2018-04-09T14:39:50.218Z,40.49
2018-04-09T14:42:21.028Z,40.55
2018-04-09T14:44:51.967Z,40.11
2018-04-09T14:47:23.191Z,39.22
2018-04-09T14:49:54.079Z,39.48
2018-04-09T14:52:24.940Z,40.13
2018-04-09T14:54:56.175Z,39.47
2018-04-09T14:57:27.139Z,39.69
2018-04-09T14:59:57.980Z,39.65
2018-04-09T15:02:29.083Z,39.07
2018-04-09T15:05:00.002Z,39.11
2018-04-09T15:07:31.247Z,39.49
2018-04-09T15:10:02.155Z,39.35
2018-04-09T15:12:33.107Z,38.98
2018-04-09T15:15:04.287Z,38.24
2018-04-09T15:17:35.107Z,38.52
2018-04-09T15:20:06.151Z,37.80
2018-04-09T15:22:37.289Z,37.44
2018-04-09T15:25:08.167Z,37.84
2018-04-09T15:27:39.049Z,37.86
2018-04-09T15:30:10.290Z,37.24
2018-04-09T15:32:41.139Z,38.46
2018-04-09T15:35:12.118Z,38.63
2018-04-09T15:37:43.361Z,37.90
2018-04-09T15:40:14.227Z,37.95
2018-04-09T15:42:45.623Z,38.25
2018-04-09T15:45:16.503Z,38.20
2018-04-09T15:47:47.389Z,38.34
2018-04-09T15:50:18.568Z,39.04
2018-04-09T15:52:49.449Z,38.89
2018-04-09T15:55:20.299Z,38.90
2018-04-09T15:57:51.445Z,38.71
2018-04-09T16:00:22.283Z,38.87
2018-04-09T16:02:53.186Z,38.55
2018-04-09T16:05:24.261Z,39.43
2018-04-09T16:07:55.131Z,39.41
2018-04-09T16:10:26.003Z,40.58
2018-04-09T16:12:56.934Z,39.93
2018-04-09T16:15:28.107Z,39.65
2018-04-09T16:18:09.359Z,39.98
2018-04-09T16:20:40.543Z,39.12
2018-04-09T16:23:11.411Z,39.94
2018-04-09T16:25:42.387Z,39.24
2018-04-09T16:28:13.444Z,40.23
2018-04-09T16:30:44.312Z,40.65
2018-04-09T16:33:15.315Z,40.96
2018-04-09T16:35:54.227Z,41.03
2018-04-09T16:38:25.179Z,41.30
2018-04-09T16:40:56.622Z,41.56
2018-04-09T16:43:27.438Z,41.78
2018-04-09T16:45:58.248Z,41.72
2018-04-09T16:48:29.625Z,42.51
2018-04-09T16:51:00.424Z,42.56
2018-04-09T16:53:31.807Z,42.44
2018-04-09T16:56:02.667Z,42.54
2018-04-09T16:58:37.683Z,42.33
2018-04-09T17:01:08.988Z,42.66
2018-04-09T17:03:39.830Z,42.60
2018-04-09T17:06:11.206Z,43.12
2018-04-09T17:08:42.347Z,42.68
2018-04-09T17:11:13.305Z,42.74
2018-04-09T17:13:44.083Z,43.21
2018-04-09T17:16:15.250Z,43.13
2018-04-09T17:18:46.065Z,43.46
2018-04-09T17:21:16.923Z,43.42
2018-04-09T17:23:48.120Z,43.38
2018-04-09T17:26:18.935Z,42.63
2018-04-09T17:28:49.755Z,42.66
2018-04-09T17:33:50.716Z,42.21
2018-04-09T17:36:21.647Z,42.25
2018-04-09T17:38:52.669Z,42.37
2018-04-09T17:41:23.762Z,42.30
2018-04-09T17:43:54.947Z,42.43
2018-04-09T17:46:26.126Z,42.41
2018-04-09T17:48:57.048Z,42.65
2018-04-09T17:51:27.825Z,43.01
2018-04-09T17:53:59.715Z,42.95
2018-04-09T17:56:31.198Z,42.83
2018-04-09T17:59:02.229Z,43.19
2018-04-09T18:01:33.406Z,43.20
2018-04-09T18:04:04.342Z,43.29
2018-04-09T18:06:35.339Z,43.78
2018-04-09T18:09:07.092Z,43.30
2018-04-09T18:11:38.139Z,43.09
2018-04-09T18:14:09.331Z,43.12
2018-04-09T18:16:40.291Z,43.23
2018-04-09T18:19:11.551Z,43.38
2018-04-09T18:21:42.731Z,43.52
2018-04-09T18:24:13.715Z,43.65
2018-04-09T18:26:44.803Z,43.80
2018-04-09T18:29:16.172Z,43.90
2018-04-09T18:31:47.222Z,44.07
2018-04-09T18:34:18.449Z,43.69
2018-04-09T18:36:50.265Z,44.08
2018-04-09T18:39:21.423Z,44.23
2018-04-09T18:41:52.888Z,43.63
2018-04-09T18:44:23.803Z,44.31
2018-04-09T18:46:54.793Z,45.09
2018-04-09T18:49:26.479Z,44.30
2018-04-09T18:51:57.369Z,44.13
2018-04-09T18:54:28.296Z,44.26
2018-04-09T18:56:59.567Z,44.46
2018-04-09T18:59:42.557Z,44.43
2018-04-09T19:02:13.746Z,44.41
2018-04-09T19:04:44.688Z,44.47
2018-04-09T19:07:20.297Z,44.51
2018-04-09T19:09:51.668Z,44.48
2018-04-09T19:12:22.629Z,45.28
2018-04-09T19:14:53.551Z,45.29
2018-04-09T19:17:25.271Z,45.59
2018-04-09T19:19:56.227Z,45.54
2018-04-09T19:22:27.178Z,45.62
2018-04-09T19:24:58.440Z,45.71
2018-04-09T19:27:30.274Z,45.62
2018-04-09T19:30:01.240Z,45.96
2018-04-09T19:32:32.519Z,46.04
2018-04-09T19:35:07.254Z,46.06
2018-04-09T19:47:42.798Z,47.27
2018-04-09T19:50:13.843Z,47.94
2018-04-09T19:52:44.723Z,48.68
2018-04-09T19:55:15.799Z,49.54
2018-04-09T19:57:47.298Z,49.75
2018-04-09T20:00:18.244Z,48.97
2018-04-09T20:02:49.267Z,49.21
2018-04-09T20:05:21.234Z,48.77
2018-04-09T20:07:52.220Z,49.51
2018-04-09T20:10:23.314Z,49.11
2018-04-09T20:12:54.901Z,49.71
2018-04-09T20:15:26.206Z,50.08
2018-04-09T20:17:57.383Z,49.28
2018-04-09T20:20:29.004Z,48.73
2018-04-09T20:23:00.031Z,48.50
2018-04-09T20:28:06.674Z,48.91
2018-04-09T20:30:37.660Z,48.85
2018-04-09T20:33:08.943Z,48.77
2018-04-09T20:35:39.899Z,50.47
2018-04-09T20:38:11.785Z,49.55
2018-04-09T20:40:42.715Z,50.71
2018-04-09T20:43:13.634Z,50.81
2018-04-09T20:45:44.566Z,51.74
2018-04-09T20:48:15.839Z,51.92
2018-04-09T20:50:46.695Z,52.56
2018-04-09T20:53:17.651Z,53.53
2018-04-09T20:55:49.047Z,52.03
2018-04-09T20:58:19.991Z,51.43
2018-04-09T21:00:50.943Z,50.84
2018-04-09T21:03:22.232Z,50.74
2018-04-09T21:05:53.272Z,51.40
2018-04-09T21:08:24.223Z,50.97
2018-04-09T21:10:55.467Z,51.25
2018-04-09T21:13:26.414Z,51.02
2018-04-09T21:15:57.692Z,51.62
2018-04-09T21:18:28.706Z,51.80
2018-04-09T21:20:59.647Z,51.40
2018-04-09T21:23:30.905Z,52.06
2018-04-09T21:26:01.879Z,51.55
2018-04-09T21:28:32.823Z,51.86
2018-04-09T21:31:04.031Z,51.88
2018-04-09T21:33:35.446Z,54.44
2018-04-09T21:36:06.519Z,53.15
2018-04-09T21:38:37.725Z,52.92
2018-04-09T21:41:08.719Z,52.47
2018-04-09T21:43:40.161Z,52.37
2018-04-09T21:46:11.104Z,54.48
2018-04-09T21:48:42.115Z,52.99
2018-04-09T21:51:13.314Z,54.41
2018-04-09T21:53:44.299Z,56.29
2018-04-09T21:56:15.191Z,56.30
2018-04-09T21:58:46.386Z,53.91
2018-04-09T22:01:17.406Z,53.37
2018-04-09T22:03:53.007Z,53.29
2018-04-09T22:06:28.738Z,53.41
2018-04-09T22:09:03.122Z,54.45
2018-04-09T22:11:39.600Z,55.78
2018-04-09T22:14:15.143Z,53.96
2018-04-09T22:16:51.711Z,57.31
2018-04-09T22:19:26.621Z,57.20
2018-04-09T22:22:02.184Z,55.55
2018-04-09T22:24:38.804Z,57.19
2018-04-09T22:27:12.958Z,55.58
2018-04-09T22:29:47.571Z,55.78
2018-04-09T22:32:22.688Z,54.85
2018-04-09T22:34:57.214Z,54.54
2018-04-09T22:37:32.308Z,54.63
2018-04-09T22:40:07.890Z,54.38
2018-04-09T22:42:42.004Z,54.26
2018-04-09T22:45:16.457Z,54.48
2018-04-09T22:47:51.437Z,54.50
2018-04-09T22:50:25.798Z,55.19
2018-04-09T22:52:59.832Z,54.89
2018-04-09T22:55:34.523Z,55.15
2018-04-09T22:58:08.791Z,55.00
2018-04-09T23:00:42.560Z,55.16
2018-04-09T23:03:18.097Z,55.48
2018-04-09T23:05:52.166Z,55.44
2018-04-09T23:08:26.358Z,55.63
2018-04-09T23:11:00.614Z,55.49
2018-04-09T23:13:34.784Z,55.38
2018-04-09T23:18:39.914Z,55.76
2018-04-09T23:21:14.247Z,55.20
2018-04-09T23:23:48.250Z,55.32
2018-04-09T23:26:22.657Z,55.69
2018-04-09T23:28:56.650Z,55.85
2018-04-09T23:31:29.942Z,55.86
2018-04-09T23:34:05.517Z,55.88
2018-04-09T23:36:38.599Z,55.86
2018-04-09T23:39:10.330Z,55.59
2018-04-09T23:44:13.140Z,55.46
2018-04-09T23:46:45.020Z,55.89
2018-04-09T23:49:16.640Z,55.75
2018-04-09T23:51:47.672Z,55.69
2018-04-09T23:54:19.484Z,56.12
2018-04-09T23:56:50.732Z,56.27
2018-04-09T23:59:22.520Z,56.27
